Terminal Aerodrome Forecast
Issued by NWS Bismarck, ND

Home | Current Version | Previous Version | Text Only | Print | Product List | Glossary On
Versions: 1 2 3 4 5 6 7 8 9 10 11 12 13 14 15 16 17 18
123
FTUS43 KBIS 121130
TAFBIS
TAF
KBIS 121130Z 1212/1312 36005KT P6SM SCT015 BKN025 OVC090
      TEMPO 1212/1214 BKN015
     FM121400 36008KT P6SM BKN035
     FM122200 05006KT P6SM SCT250
     FM130000 08006KT P6SM SCT250
     FM130300 11006KT P6SM SCT250
     FM130900 14010KT P6SM BKN025 OVC040=

USA.gov is the U.S. government's official web portal to all federal, state and local government web resources and services.